Wetterdaten: April 2009
Datum Temp Feuchte Luftdruck Regen Wind Richtung Sonnenschein UV Solar Windben
01.04.2009 8,6 C 71 % 1021,7 hPa 0,0 l/m 4,7 km/h N-NO 9,83 h 2,0 UV-I 382 W/m 11,7 km/h
02.04.2009 10,9 C 70 % 1019,0 hPa 0,0 l/m 5,7 km/h O-NO 9,92 h 2,1 UV-I 382 W/m 13,3 km/h
03.04.2009 13,0 C 70 % 1015,8 hPa 0,0 l/m 3,4 km/h S-SO 10,00 h 2,3 UV-I 394 W/m 8,8 km/h
04.04.2009 12,0 C 82 % 1019,1 hPa 0,0 l/m 6,2 km/h NW 6,00 h 1,7 UV-I 247 W/m 13,7 km/h
05.04.2009 7,3 C 91 % 1022,7 hPa 0,0 l/m 0,8 km/h N-NO 1,08 h 0,9 UV-I 116 W/m 2,4 km/h
06.04.2009 12,0 C 77 % 1014,2 hPa 0,0 l/m 6,9 km/h SO 9,92 h 2,0 UV-I 362 W/m 13,3 km/h
07.04.2009 13,3 C 79 % 1009,6 hPa 3,8 l/m 5,3 km/h S-SO 7,17 h 2,1 UV-I 322 W/m 8,4 km/h
08.04.2009 11,7 C 69 % 1012,8 hPa 0,8 l/m 8,1 km/h S 2,92 h 1,8 UV-I 238 W/m 14,9 km/h
09.04.2009 11,0 C 87 % 1015,3 hPa 2,0 l/m 1,3 km/h S 6,08 h 2,0 UV-I 331 W/m 2,0 km/h
10.04.2009 15,9 C 67 % 1009,3 hPa 0,0 l/m 7,0 km/h SO 10,92 h 2,3 UV-I 403 W/m 15,7 km/h
11.04.2009 16,3 C 67 % 1008,4 hPa 0,0 l/m 4,0 km/h SO 9,92 h 2,2 UV-I 373 W/m 9,7 km/h
12.04.2009 15,9 C 64 % 1009,4 hPa 0,0 l/m 3,5 km/h SO 10,67 h 2,2 UV-I 375 W/m 9,6 km/h
13.04.2009 13,3 C 81 % 1008,2 hPa 0,0 l/m 1,7 km/h S 10,00 h 1,9 UV-I 381 W/m 4,0 km/h
14.04.2009 14,3 C 69 % 1009,3 hPa 0,0 l/m 2,1 km/h N-NO 8,00 h 2,3 UV-I 365 W/m 5,2 km/h
15.04.2009 15,5 C 62 % 1009,6 hPa 0,0 l/m 4,6 km/h SO 9,17 h 2,2 UV-I 349 W/m 10,4 km/h
16.04.2009 16,1 C 53 % 1004,9 hPa 0,6 l/m 8,4 km/h SO 8,17 h 2,3 UV-I 347 W/m 16,9 km/h
17.04.2009 8,4 C 90 % 1005,5 hPa 3,8 l/m 1,7 km/h N-NO 0,67 h 1,0 UV-I 111 W/m 5,2 km/h
18.04.2009 7,1 C 90 % 1015,1 hPa 0,8 l/m 3,5 km/h N-NO 0,00 h 1,0 UV-I 108 W/m 8,4 km/h
19.04.2009 8,8 C 86 % 1023,4 hPa 0,0 l/m 3,8 km/h SO 6,08 h 1,9 UV-I 293 W/m 8,8 km/h
20.04.2009 12,3 C 65 % 1023,9 hPa 0,0 l/m 3,0 km/h N-NO 11,50 h 2,7 UV-I 439 W/m 8,4 km/h
21.04.2009 10,9 C 68 % 1022,6 hPa 0,0 l/m 1,8 km/h N-NO 12,08 h 2,8 UV-I 451 W/m 5,6 km/h
22.04.2009 8,3 C 73 % 1021,5 hPa 0,0 l/m 7,2 km/h N-NW 2,67 h 1,3 UV-I 202 W/m 16,5 km/h
23.04.2009 8,0 C 86 % 1023,7 hPa 0,2 l/m 4,2 km/h N-NW 3,17 h 1,6 UV-I 234 W/m 8,0 km/h
24.04.2009 11,1 C 65 % 1020,1 hPa 0,0 l/m 7,7 km/h SO 11,75 h 2,4 UV-I 424 W/m 14,5 km/h
25.04.2009 12,5 C 70 % 1012,9 hPa 0,0 l/m 7,2 km/h S 9,25 h 2,2 UV-I 392 W/m 12,5 km/h
26.04.2009 15,0 C 68 % 1006,0 hPa 0,0 l/m 3,6 km/h SO 10,75 h 2,5 UV-I 410 W/m 7,2 km/h
27.04.2009 12,8 C 76 % 1003,0 hPa 0,0 l/m 3,8 km/h S 5,32 h 1,7 UV-I 264 W/m 8,0 km/h
28.04.2009 9,2 C 93 % 1003,9 hPa 10,0 l/m 2,3 km/h N-NW 0,00 h 0,7 UV-I 83 W/m 7,3 km/h
29.04.2009 8,4 C 96 % 1011,0 hPa 4,0 l/m 2,4 km/h N-NW 0,00 h 1,1 UV-I 128 W/m 6,0 km/h
30.04.2009 10,5 C 93 % 1018,3 hPa 14,4 l/m 1,2 km/h N-NW 1,92 h 1,7 UV-I 221 W/m 4,4 km/h
Min-Datum 01.04.09 21.04.09 28.04.09 10 Tage 01.04.09 - - - - 01.04.09
Min-Zeit 05:50 15:10 09:15 - 00:15 - - - - 00:15
Minimum 1,5 C 34 % 1000,2 hPa - 0,0 km/h - - - - 0,0 km/h
Max-Datum 11.04.09 14.04.09 20.04.09 30.04.09 30.04.09 - 21.04.09 20.04.09 22.04.09 25.04.09
Max-Zeit 15:20 00:00 11:00 23:40 20:00 - 19:20 12:55 14:15 12:45
Maximum 23,6 C 100 % 1025,0 hPa 14,4 l/m 31,9 km/h
N-NW
- 12,00 h 4,7 UV-I 942 W/m 53,1 km/h
S
Durchschnitt 11,7 C 76 % 1014,0 hPa #40,4 l/m 4,2 km/h SO #204:54 h 1,9 UV-I 304 W/m 9,4 km/h

Durchschnitt Minimum Temp.6,4 C
Durchschnitt Maximum Temp.17,7 C